Time;durP1;ratioP1;P1;durP2;ratioP2;P2;SDS_P1;SDS_P2;PMS_P1;PMS_P2;Temp;Humidity;BMP_temperature;BMP_pressure;BME280_temperature;BME280_humidity;BME280_pressure;Samples;Min_cycle;Max_cycle;Signal;HPM_P1;HPM_P2
2023/06/16 00:00:47;;;;;;;7.75;6.00;;;;;;;12.08;69.58;96103.38;2026851;29;20111;-58
2023/06/16 00:01:53;;;;;;;8.55;5.97;;;;;;;12.07;70.12;96104.31;2026134;29;20071;-58
2023/06/16 00:02:57;;;;;;;8.75;6.50;;;;;;;12.07;70.28;96101.69;2026680;29;20064;-58
2023/06/16 00:03:59;;;;;;;9.95;7.25;;;;;;;12.06;70.81;96098.25;2026818;29;20067;-59
2023/06/16 00:05:01;;;;;;;9.15;7.28;;;;;;;12.07;72.06;96101.69;2026070;29;20063;-58
2023/06/16 00:06:14;;;;;;;9.23;6.90;;;;;;;12.05;71.95;96096.56;2026756;29;20037;-58
2023/06/16 00:07:19;;;;;;;9.20;7.68;;;;;;;11.98;73.04;96083.97;2026609;29;20469;-58
2023/06/16 00:08:21;;;;;;;10.23;6.82;;;;;;;11.95;73.94;96078.91;2026612;29;20055;-59
2023/06/16 00:09:25;;;;;;;11.52;7.05;;;;;;;12.03;73.77;96094.97;2025912;29;20056;-59
2023/06/16 00:10:26;;;;;;;8.70;6.88;;;;;;;12.03;74.26;96100.16;2025966;29;20431;-59
2023/06/16 00:11:28;;;;;;;10.90;6.95;;;;;;;11.90;73.90;96080.00;2026575;29;20044;-59
2023/06/16 00:12:29;;;;;;;8.82;6.90;;;;;;;11.98;73.76;96100.41;2025952;29;20072;-59
2023/06/16 00:13:30;;;;;;;12.07;6.63;;;;;;;11.94;73.11;96096.28;2026720;29;20142;-59
2023/06/16 00:14:31;;;;;;;8.52;6.72;;;;;;;11.94;72.86;96100.66;2026435;29;20060;-59
2023/06/16 00:15:32;;;;;;;12.13;6.70;;;;;;;11.90;73.06;96094.75;2025997;29;20072;-59
2023/06/16 00:16:36;;;;;;;9.30;6.38;;;;;;;11.86;72.92;96096.66;2026237;29;20060;-59
2023/06/16 00:17:44;;;;;;;10.43;6.07;;;;;;;11.85;72.31;96096.72;2017665;29;20405;-59
2023/06/16 00:18:51;;;;;;;10.10;6.30;;;;;;;11.83;72.69;96102.00;2021694;29;20045;-60
2023/06/16 00:19:58;;;;;;;9.60;6.72;;;;;;;11.73;72.40;96079.13;2026680;29;20052;-59
2023/06/16 00:21:01;;;;;;;9.50;6.57;;;;;;;11.80;72.79;96099.56;2026143;29;20052;-59
2023/06/16 00:22:03;;;;;;;13.30;6.60;;;;;;;11.78;72.22;96103.16;2026315;29;20072;-59
2023/06/16 00:23:07;;;;;;;9.15;5.95;;;;;;;11.77;72.57;96097.09;2026319;29;20051;-59
2023/06/16 00:24:08;;;;;;;9.25;6.13;;;;;;;11.75;72.98;96093.72;2026219;29;20059;-59
2023/06/16 00:25:09;;;;;;;8.40;6.43;;;;;;;11.75;72.56;96098.09;2026362;29;20504;-59
2023/06/16 00:26:10;;;;;;;11.23;7.00;;;;;;;11.74;72.54;96096.44;2026513;29;20059;-58
2023/06/16 00:27:13;;;;;;;13.88;7.30;;;;;;;11.69;72.76;96097.50;2017994;29;20052;-59
2023/06/16 00:28:14;;;;;;;10.35;7.03;;;;;;;11.68;73.16;96100.16;2018073;29;20052;-57
2023/06/16 00:29:15;;;;;;;9.93;6.95;;;;;;;11.64;73.31;96096.88;2018006;29;20152;-59
2023/06/16 00:30:17;;;;;;;9.48;6.82;;;;;;;11.63;73.93;96092.59;2018012;29;20053;-59
2023/06/16 00:31:18;;;;;;;8.93;6.70;;;;;;;11.62;74.06;96092.66;2018240;29;20469;-59
2023/06/16 00:32:19;;;;;;;9.02;6.80;;;;;;;11.59;73.29;96085.03;2017511;29;20070;-59
2023/06/16 00:33:20;;;;;;;8.40;6.18;;;;;;;11.54;72.73;96077.44;2018141;29;20088;-58
2023/06/16 00:34:22;;;;;;;9.10;6.60;;;;;;;11.61;72.81;96093.59;2010419;29;20430;-59
2023/06/16 00:35:23;;;;;;;9.27;6.70;;;;;;;11.60;73.11;96091.88;2017159;29;20060;-58
2023/06/16 00:36:25;;;;;;;8.73;6.78;;;;;;;11.59;73.13;96092.81;2026273;29;20048;-59
2023/06/16 00:37:26;;;;;;;10.40;6.65;;;;;;;11.58;72.79;96084.19;2026378;29;20044;-59
2023/06/16 00:38:28;;;;;;;10.93;6.55;;;;;;;11.48;73.38;96068.19;2026444;29;20048;-57
2023/06/16 00:39:29;;;;;;;9.48;6.75;;;;;;;11.55;72.55;96083.50;2026481;29;20056;-60
2023/06/16 00:40:30;;;;;;;9.18;6.75;;;;;;;11.54;72.89;96089.59;2017654;29;20061;-59
2023/06/16 00:41:31;;;;;;;8.35;6.50;;;;;;;11.53;73.18;96085.34;2017709;29;20437;-59
2023/06/16 00:42:32;;;;;;;10.25;7.35;;;;;;;11.48;73.40;96075.16;2026136;29;20052;-59
2023/06/16 00:43:34;;;;;;;9.50;6.65;;;;;;;11.48;74.00;96085.56;2017556;29;20053;-59
2023/06/16 00:44:35;;;;;;;10.20;6.65;;;;;;;11.46;74.13;96087.38;2017693;29;20072;-57
2023/06/16 00:45:36;;;;;;;11.40;7.05;;;;;;;11.44;74.06;96084.88;2026037;29;20057;-59
2023/06/16 00:46:37;;;;;;;9.25;6.82;;;;;;;11.40;74.36;96072.91;2026297;29;20397;-59
2023/06/16 00:47:38;;;;;;;11.30;7.38;;;;;;;11.40;74.45;96080.72;2025974;29;20057;-59
2023/06/16 00:48:40;;;;;;;10.00;6.93;;;;;;;11.38;74.19;96081.72;2026286;29;20511;-59
2023/06/16 00:49:41;;;;;;;8.18;6.55;;;;;;;11.38;73.76;96079.13;2018155;29;20060;-59
2023/06/16 00:50:42;;;;;;;9.73;6.60;;;;;;;11.39;74.68;96083.41;2017850;29;20072;-59
2023/06/16 00:51:43;;;;;;;8.82;7.07;;;;;;;11.36;74.64;96083.53;2026362;29;20068;-59
2023/06/16 00:52:44;;;;;;;9.52;7.68;;;;;;;11.35;74.31;96093.09;2010559;29;20057;-59
2023/06/16 00:53:47;;;;;;;9.13;6.80;;;;;;;11.37;74.41;96091.28;2010061;29;20054;-59
2023/06/16 00:54:48;;;;;;;9.68;7.18;;;;;;;11.34;74.33;96085.41;2025632;29;20154;-59
2023/06/16 00:55:50;;;;;;;15.00;7.45;;;;;;;11.35;74.59;96089.66;2018096;29;20468;-59
2023/06/16 00:56:52;;;;;;;8.73;7.00;;;;;;;11.32;74.75;96093.25;1995169;29;20062;-71
2023/06/16 00:57:54;;;;;;;9.57;7.53;;;;;;;11.32;74.92;96090.66;1988274;29;20049;-71
2023/06/16 00:58:56;;;;;;;10.38;7.20;;;;;;;11.33;75.56;96091.50;2010773;29;20066;-71
2023/06/16 00:59:57;;;;;;;11.45;7.85;;;;;;;11.32;75.60;96090.66;2017545;29;20057;-71
2023/06/16 01:00:59;;;;;;;8.32;7.00;;;;;;;11.33;75.73;96091.50;2010289;29;20462;-71
2023/06/16 01:02:00;;;;;;;10.15;7.50;;;;;;;11.32;75.14;96092.41;2017243;29;20076;-71
2023/06/16 01:03:04;;;;;;;8.77;7.05;;;;;;;11.26;74.93;96076.19;2017794;29;20061;-69
2023/06/16 01:04:05;;;;;;;9.75;7.07;;;;;;;11.39;75.10;96093.81;2018368;29;20056;-71
2023/06/16 01:05:08;;;;;;;10.98;7.32;;;;;;;11.41;74.50;96090.22;2018067;29;20053;-71
2023/06/16 01:06:23;;;;;;;11.27;6.95;;;;;;;11.44;75.12;96091.81;2010145;29;20050;-71
2023/06/16 01:07:35;;;;;;;10.82;7.30;;;;;;;11.38;74.77;96074.75;2004885;29;20058;-72
2023/06/16 01:08:45;;;;;;;10.15;6.68;;;;;;;11.47;74.79;96089.91;1998881;29;20058;-71
2023/06/16 01:09:49;;;;;;;11.25;7.00;;;;;;;11.51;74.55;96087.16;2011117;29;20053;-71
2023/06/16 01:11:10;;;;;;;10.10;6.90;;;;;;;11.53;74.31;96093.13;2010503;29;20053;-71
2023/06/16 01:12:20;;;;;;;11.25;7.80;;;;;;;11.50;74.30;96088.94;2004912;29;20058;-72
2023/06/16 01:13:42;;;;;;;8.02;7.00;;;;;;;11.54;74.12;96097.41;1998011;29;20113;-71
2023/06/16 01:15:05;;;;;;;11.13;7.28;;;;;;;11.54;73.67;96092.19;2015604;29;20061;-71
2023/06/16 01:16:07;;;;;;;9.88;7.10;;;;;;;11.55;74.35;96101.72;2017376;29;20064;-71
2023/06/16 01:17:08;;;;;;;11.48;6.95;;;;;;;11.55;73.61;96101.72;2019876;29;20048;-71
2023/06/16 01:18:09;;;;;;;7.60;6.32;;;;;;;11.53;73.92;96075.75;2025871;29;20056;-69
2023/06/16 01:19:17;;;;;;;10.43;6.97;;;;;;;11.63;73.34;96099.56;2010204;29;20482;-71
2023/06/16 01:20:29;;;;;;;12.88;7.50;;;;;;;11.45;73.71;96065.75;2003691;29;20434;-72
2023/06/16 01:21:38;;;;;;;9.68;7.53;;;;;;;11.59;73.46;96083.25;1998674;29;20054;-71
2023/06/16 01:23:07;;;;;;;10.20;7.10;;;;;;;11.68;74.11;96092.34;2005198;29;20083;-72
2023/06/16 01:24:13;;;;;;;9.38;6.75;;;;;;;11.55;74.00;96081.75;2006089;29;20502;-71
2023/06/16 01:25:15;;;;;;;9.40;7.13;;;;;;;11.62;73.58;96093.50;2003002;29;20418;-71
2023/06/16 01:26:16;;;;;;;11.73;7.10;;;;;;;11.59;74.34;96098.03;1988302;29;20436;-71
2023/06/16 01:27:17;;;;;;;10.93;7.75;;;;;;;11.51;74.48;96084.56;1995006;29;20491;-71
2023/06/16 01:28:19;;;;;;;9.25;7.32;;;;;;;11.54;74.00;96093.03;1994946;29;20074;-71
2023/06/16 01:29:21;;;;;;;9.20;6.70;;;;;;;11.54;74.16;96093.03;1987016;29;20161;-71
2023/06/16 01:30:24;;;;;;;9.35;7.30;;;;;;;11.53;74.63;96100.94;1994977;29;20065;-72
2023/06/16 01:31:28;;;;;;;11.23;7.22;;;;;;;11.42;74.72;96088.47;2010108;29;20430;-71
2023/06/16 01:32:29;;;;;;;9.52;6.88;;;;;;;11.46;74.30;96101.22;2009882;29;20060;-71
2023/06/16 01:33:32;;;;;;;8.25;6.40;;;;;;;11.36;74.89;96080.94;2002701;29;20052;-71
2023/06/16 01:34:33;;;;;;;9.32;6.85;;;;;;;11.38;74.05;96087.75;2002401;29;20407;-71
2023/06/16 01:35:34;;;;;;;9.55;6.35;;;;;;;11.34;74.66;96091.44;2009755;29;20136;-71
2023/06/16 01:36:36;;;;;;;9.00;7.18;;;;;;;11.35;74.47;96087.06;2017611;29;20139;-71
2023/06/16 01:37:38;;;;;;;10.55;7.20;;;;;;;11.26;73.85;96067.56;2009656;29;20058;-71
2023/06/16 01:38:40;;;;;;;10.85;6.40;;;;;;;11.33;73.95;96089.72;1995134;29;20066;-71
2023/06/16 01:39:41;;;;;;;8.35;6.15;;;;;;;11.31;74.38;96095.94;1987385;29;20387;-71
2023/06/16 01:40:42;;;;;;;8.57;6.05;;;;;;;11.28;74.02;96091.75;1994384;29;20069;-72
2023/06/16 01:41:44;;;;;;;10.40;6.82;;;;;;;11.26;74.43;96088.38;2009766;29;20061;-71
2023/06/16 01:42:46;;;;;;;10.77;7.05;;;;;;;11.22;73.83;96087.66;2010243;29;20124;-71
2023/06/16 01:43:47;;;;;;;10.77;6.57;;;;;;;11.21;74.65;96093.78;2016915;29;20053;-71
2023/06/16 01:44:49;;;;;;;9.55;6.97;;;;;;;11.21;75.12;96091.19;1994913;29;20088;-71
2023/06/16 01:45:51;;;;;;;9.18;7.15;;;;;;;11.20;74.78;96099.03;1987148;29;20415;-71
2023/06/16 01:46:52;;;;;;;7.95;6.32;;;;;;;11.19;74.79;96098.19;2010158;29;20060;-71
2023/06/16 01:47:53;;;;;;;12.30;6.70;;;;;;;11.20;75.06;96094.69;2009850;29;20053;-71
2023/06/16 01:48:54;;;;;;;7.45;6.47;;;;;;;11.18;75.47;96087.91;2002370;29;20480;-71
2023/06/16 01:49:56;;;;;;;10.05;6.93;;;;;;;11.13;75.20;96074.28;2010106;29;20089;-71
2023/06/16 01:50:58;;;;;;;8.95;6.78;;;;;;;11.21;75.13;96090.34;2010087;29;20410;-71
2023/06/16 01:51:59;;;;;;;8.73;6.57;;;;;;;11.12;75.03;96075.16;2002654;29;20060;-72
2023/06/16 01:53:00;;;;;;;9.68;7.20;;;;;;;11.23;74.53;96099.75;2002501;29;20045;-71
2023/06/16 01:54:01;;;;;;;7.57;6.32;;;;;;;11.22;74.42;96095.44;2003014;29;20054;-71
2023/06/16 01:55:02;;;;;;;9.82;7.28;;;;;;;11.21;75.30;96091.19;2017773;29;20044;-71
2023/06/16 01:56:03;;;;;;;9.32;7.10;;;;;;;11.19;74.68;96090.41;2009923;29;20048;-71
2023/06/16 01:57:05;;;;;;;14.52;7.53;;;;;;;11.18;74.85;96091.31;2002261;29;20057;-72
2023/06/16 01:58:07;;;;;;;9.55;7.15;;;;;;;11.06;75.69;96068.50;2009736;29;20045;-71
2023/06/16 01:59:08;;;;;;;8.98;6.95;;;;;;;11.14;75.81;96087.19;2016966;29;20079;-71
2023/06/16 02:00:29;;;;;;;8.65;7.00;;;;;;;11.12;75.27;96088.16;2025610;29;20441;-71
2023/06/16 02:01:33;;;;;;;8.35;6.57;;;;;;;11.07;75.57;96088.41;2017563;29;20057;-72
2023/06/16 02:02:34;;;;;;;8.77;7.07;;;;;;;11.03;75.62;96087.69;2009915;29;20056;-71
2023/06/16 02:04:02;;;;;;;9.65;7.28;;;;;;;11.00;76.23;96087.00;2009155;29;20061;-71
2023/06/16 02:05:05;;;;;;;10.20;8.02;;;;;;;10.98;76.68;96088.81;2005548;29;20042;-71
2023/06/16 02:06:10;;;;;;;9.35;7.55;;;;;;;10.84;77.00;96073.88;1995281;29;20045;-71
2023/06/16 02:07:14;;;;;;;11.90;7.75;;;;;;;10.90;77.77;96085.75;1988077;29;20055;-71
2023/06/16 02:08:15;;;;;;;10.07;7.97;;;;;;;10.87;78.49;96091.09;1987553;29;20432;-71
2023/06/16 02:09:16;;;;;;;9.20;7.70;;;;;;;10.89;79.26;96084.06;1994518;29;20080;-71
2023/06/16 02:10:18;;;;;;;9.95;7.85;;;;;;;10.91;78.84;96090.06;1987073;29;20055;-71
2023/06/16 02:11:19;;;;;;;11.48;8.57;;;;;;;10.84;79.42;96079.09;2002298;29;20395;-71
2023/06/16 02:12:20;;;;;;;11.30;8.65;;;;;;;10.88;79.30;96074.59;2009891;29;20057;-71
2023/06/16 02:13:22;;;;;;;10.10;8.15;;;;;;;10.80;79.48;96067.19;1994285;29;20054;-71
2023/06/16 02:14:24;;;;;;;12.38;7.95;;;;;;;10.80;79.40;96067.19;1979657;29;20064;-71
2023/06/16 02:15:27;;;;;;;9.38;7.32;;;;;;;10.89;79.42;96078.88;2010087;29;20057;-71
2023/06/16 02:16:29;;;;;;;9.10;7.32;;;;;;;10.80;78.91;96067.19;2025039;29;20067;-71
2023/06/16 02:17:30;;;;;;;9.90;7.45;;;;;;;10.85;79.19;96087.72;2017095;29;20053;-71
2023/06/16 02:18:32;;;;;;;10.70;8.43;;;;;;;10.82;79.63;96083.50;2017570;29;20060;-71
2023/06/16 02:19:33;;;;;;;13.30;7.82;;;;;;;10.79;78.79;96081.06;2025743;29;20055;-71
2023/06/16 02:20:35;;;;;;;12.27;7.68;;;;;;;10.68;79.89;96065.13;2025464;29;20060;-71
2023/06/16 02:21:37;;;;;;;12.15;7.93;;;;;;;10.73;79.21;96087.38;2025826;29;20063;-71
2023/06/16 02:22:38;;;;;;;11.00;8.32;;;;;;;10.68;79.54;96070.34;2025286;29;20053;-71
2023/06/16 02:23:39;;;;;;;11.45;8.68;;;;;;;10.63;79.44;96072.28;2009872;29;20418;-71
2023/06/16 02:24:40;;;;;;;10.43;7.90;;;;;;;10.58;79.67;96072.50;2009118;29;20057;-71
2023/06/16 02:25:41;;;;;;;10.25;7.93;;;;;;;10.54;80.25;96064.00;2025032;29;20405;-71
2023/06/16 02:26:42;;;;;;;11.30;7.78;;;;;;;10.61;80.09;96080.16;2025344;29;20064;-71
2023/06/16 02:27:44;;;;;;;11.88;7.57;;;;;;;10.63;79.13;96080.91;2025821;29;20059;-71
2023/06/16 02:28:45;;;;;;;10.13;7.50;;;;;;;10.62;79.65;96083.59;2025540;29;20052;-71
2023/06/16 02:29:46;;;;;;;11.30;8.45;;;;;;;10.58;78.86;96082.88;2016681;29;20061;-73
2023/06/16 02:30:47;;;;;;;11.45;7.80;;;;;;;10.58;79.17;96078.56;2017310;29;20132;-71
2023/06/16 02:31:49;;;;;;;9.60;7.40;;;;;;;10.47;78.52;96061.78;2009744;29;20486;-71
2023/06/16 02:32:51;;;;;;;9.63;7.75;;;;;;;10.49;78.87;96071.16;2016597;29;20514;-71
2023/06/16 02:33:52;;;;;;;9.85;7.70;;;;;;;10.36;79.51;96059.66;2017426;29;20049;-71
2023/06/16 02:34:55;;;;;;;10.95;8.02;;;;;;;10.41;79.06;96077.63;2017151;29;20493;-71
2023/06/16 02:35:57;;;;;;;10.13;7.75;;;;;;;10.39;79.58;96080.28;2017593;29;20072;-71
2023/06/16 02:36:58;;;;;;;9.82;7.30;;;;;;;10.35;80.17;96079.59;2016943;29;20425;-71
2023/06/16 02:38:00;;;;;;;12.18;7.63;;;;;;;10.31;80.29;96072.00;2016631;29;20048;-70
2023/06/16 02:39:01;;;;;;;13.88;8.45;;;;;;;10.33;79.85;96086.59;2025766;29;20045;-71
2023/06/16 02:40:04;;;;;;;9.55;7.50;;;;;;;10.32;80.53;96087.53;2017383;29;20045;-71
2023/06/16 02:41:05;;;;;;;10.63;7.82;;;;;;;10.28;80.11;96083.38;2010461;29;20128;-71
2023/06/16 02:42:08;;;;;;;13.57;8.02;;;;;;;10.24;80.25;96071.41;2011143;29;20065;-71
2023/06/16 02:43:09;;;;;;;9.68;7.70;;;;;;;10.21;80.51;96076.75;2018148;29;20060;-71
2023/06/16 02:44:10;;;;;;;9.45;8.02;;;;;;;10.22;80.04;96082.78;2018099;29;20545;-71
2023/06/16 02:45:12;;;;;;;10.75;7.60;;;;;;;10.17;80.32;96085.56;2011519;29;20068;-71
2023/06/16 02:46:13;;;;;;;10.18;7.60;;;;;;;10.14;80.43;96080.50;2011003;29;20129;-71
2023/06/16 02:47:15;;;;;;;9.65;7.88;;;;;;;10.13;80.92;96084.88;2018945;29;20528;-71
2023/06/16 02:48:16;;;;;;;10.93;8.20;;;;;;;10.12;81.24;96082.31;2019016;29;20504;-71
2023/06/16 02:49:19;;;;;;;10.75;8.07;;;;;;;10.11;80.82;96085.84;2010876;29;20058;-71
2023/06/16 02:50:20;;;;;;;11.65;7.43;;;;;;;10.08;80.76;96088.56;2011278;29;20079;-71
2023/06/16 02:51:22;;;;;;;9.88;8.25;;;;;;;10.06;80.55;96090.38;2011331;29;20049;-70
2023/06/16 02:52:23;;;;;;;9.50;8.10;;;;;;;10.02;81.00;96081.88;2011112;29;20060;-71
2023/06/16 02:53:24;;;;;;;12.68;8.82;;;;;;;10.01;81.06;96087.16;2003144;29;20057;-71
2023/06/16 02:54:26;;;;;;;10.38;8.63;;;;;;;9.98;81.36;96084.69;2011065;29;20060;-71
2023/06/16 02:55:27;;;;;;;10.98;8.05;;;;;;;9.96;81.51;96092.53;2018773;29;20429;-71
2023/06/16 02:56:30;;;;;;;10.10;8.02;;;;;;;9.93;81.43;96096.09;2003220;29;20062;-71
2023/06/16 02:57:31;;;;;;;11.05;7.93;;;;;;;9.92;81.67;96091.81;2003678;29;20049;-71
2023/06/16 02:58:33;;;;;;;13.52;8.73;;;;;;;9.80;81.02;96069.00;2018602;29;20056;-71
2023/06/16 02:59:34;;;;;;;13.15;8.70;;;;;;;9.87;81.51;96093.78;2018870;29;20060;-71
2023/06/16 03:00:35;;;;;;;11.55;8.27;;;;;;;9.84;81.86;96087.88;2011088;29;20153;-71
2023/06/16 03:01:57;;;;;;;11.10;7.78;;;;;;;9.74;82.11;96079.66;2017815;29;20063;-71
2023/06/16 03:03:02;;;;;;;11.82;8.90;;;;;;;9.69;81.84;96072.06;2023708;29;20056;-70
2023/06/16 03:04:03;;;;;;;10.07;8.35;;;;;;;9.76;82.21;96080.44;2026564;29;20048;-71
2023/06/16 03:05:19;;;;;;;12.57;8.25;;;;;;;9.74;82.30;96076.22;2018637;29;20366;-70
2023/06/16 03:06:20;;;;;;;9.50;8.13;;;;;;;9.79;82.15;96089.84;2011254;29;20075;-71
2023/06/16 03:07:22;;;;;;;11.07;8.27;;;;;;;9.77;82.26;96081.25;2018699;29;20450;-71
2023/06/16 03:08:23;;;;;;;9.30;8.10;;;;;;;9.80;82.18;96087.16;2018290;29;20412;-70
2023/06/16 03:09:25;;;;;;;11.88;8.20;;;;;;;9.80;82.24;96086.31;2018640;29;20053;-71
2023/06/16 03:10:26;;;;;;;10.00;8.55;;;;;;;9.80;82.29;96086.31;2017955;29;20059;-71
2023/06/16 03:11:56;;;;;;;10.18;7.95;;;;;;;9.79;82.39;96079.47;2019124;29;20044;-71
2023/06/16 03:12:58;;;;;;;10.50;8.77;;;;;;;9.82;82.23;96089.69;2018854;29;20048;-71
2023/06/16 03:14:00;;;;;;;12.55;8.80;;;;;;;9.81;81.42;96075.03;2010835;29;20041;-71
2023/06/16 03:15:03;;;;;;;12.52;8.35;;;;;;;9.83;81.75;96086.19;2011223;29;20068;-71
2023/06/16 03:16:04;;;;;;;10.63;8.30;;;;;;;9.88;81.31;96084.25;2018784;29;20493;-70
2023/06/16 03:17:06;;;;;;;11.18;8.20;;;;;;;9.87;81.08;96080.81;2018591;29;20485;-70
2023/06/16 03:18:08;;;;;;;11.65;9.00;;;;;;;9.86;81.48;96081.72;2011147;29;20056;-71
2023/06/16 03:19:09;;;;;;;9.73;8.27;;;;;;;9.86;81.34;96086.91;2010856;29;20061;-71
2023/06/16 03:20:11;;;;;;;11.15;8.10;;;;;;;9.88;80.87;96084.25;2010855;29;20072;-70
2023/06/16 03:21:21;;;;;;;10.63;8.80;;;;;;;9.90;80.84;96088.44;2018313;29;20060;-71
2023/06/16 03:22:24;;;;;;;10.25;8.30;;;;;;;9.87;81.18;96077.38;2011021;29;20084;-71
2023/06/16 03:23:25;;;;;;;10.50;7.82;;;;;;;9.91;80.41;96084.09;2010820;29;20553;-70
2023/06/16 03:24:26;;;;;;;10.90;9.20;;;;;;;9.98;80.56;96093.31;2011049;29;20505;-71
2023/06/16 03:25:28;;;;;;;10.27;8.65;;;;;;;10.00;80.16;96090.66;2018919;29;20056;-71
2023/06/16 03:26:31;;;;;;;13.93;8.10;;;;;;;10.02;80.18;96097.44;2010644;29;20402;-70
2023/06/16 03:27:42;;;;;;;11.82;8.35;;;;;;;10.05;80.41;96096.47;2012385;29;20057;-71
2023/06/16 03:28:45;;;;;;;10.48;8.32;;;;;;;10.09;79.90;96100.63;2010912;29;20060;-71
2023/06/16 03:29:47;;;;;;;10.70;8.40;;;;;;;10.11;79.81;96089.28;2018725;29;20102;-71
2023/06/16 03:30:48;;;;;;;10.45;7.97;;;;;;;10.17;79.95;96101.13;2018580;29;20524;-71
2023/06/16 03:31:55;;;;;;;10.25;8.32;;;;;;;10.23;79.66;96100.84;2017729;29;20052;-71
2023/06/16 03:32:57;;;;;;;13.32;8.65;;;;;;;10.27;79.29;96089.47;2011038;29;20061;-71
2023/06/16 03:33:58;;;;;;;12.60;9.07;;;;;;;10.30;79.42;96089.34;2018701;29;20041;-71
2023/06/16 03:35:02;;;;;;;11.95;8.20;;;;;;;10.35;78.82;96092.56;2018587;29;20052;-71
2023/06/16 03:36:03;;;;;;;9.35;8.07;;;;;;;10.40;79.13;96089.78;2027242;29;20048;-71
2023/06/16 03:37:15;;;;;;;10.07;8.25;;;;;;;10.44;79.05;96093.06;2018885;29;20067;-70
2023/06/16 03:38:17;;;;;;;11.20;8.50;;;;;;;10.49;78.07;96093.69;2018645;29;20041;-71
2023/06/16 03:39:20;;;;;;;10.52;8.15;;;;;;;10.53;78.04;96090.03;2018510;29;20071;-71
2023/06/16 03:40:21;;;;;;;9.93;8.23;;;;;;;10.58;78.30;96096.75;2010757;29;20060;-71
2023/06/16 03:41:22;;;;;;;11.32;8.65;;;;;;;10.66;77.56;96098.13;2010663;29;20065;-71
2023/06/16 03:42:24;;;;;;;9.82;7.90;;;;;;;10.63;77.98;96091.31;2010742;29;20057;-71
2023/06/16 03:43:26;;;;;;;9.93;8.32;;;;;;;10.76;77.54;96100.22;2011189;29;20072;-71
2023/06/16 03:44:28;;;;;;;12.20;7.85;;;;;;;10.82;77.00;96101.69;2002974;29;20073;-71
2023/06/16 03:45:29;;;;;;;11.52;7.97;;;;;;;10.85;77.41;96106.75;2003402;29;20086;-70
2023/06/16 03:46:31;;;;;;;10.95;7.78;;;;;;;10.93;77.47;96101.19;2011064;29;20057;-71
2023/06/16 03:47:34;;;;;;;9.50;7.10;;;;;;;10.99;76.88;96106.94;2011007;29;20053;-71
2023/06/16 03:48:35;;;;;;;10.45;7.88;;;;;;;10.99;76.01;96100.91;2018539;29;20159;-71
2023/06/16 03:49:41;;;;;;;9.77;7.95;;;;;;;11.10;75.20;96105.63;2019283;29;20052;-71
2023/06/16 03:50:43;;;;;;;10.07;7.72;;;;;;;11.19;75.37;96110.34;2018415;29;20052;-70
2023/06/16 03:51:45;;;;;;;11.13;8.35;;;;;;;11.23;74.83;96112.75;2010606;29;20049;-71
2023/06/16 03:52:47;;;;;;;10.38;7.80;;;;;;;11.31;74.29;96120.19;2009910;29;20378;-71
2023/06/16 03:53:50;;;;;;;11.65;8.90;;;;;;;11.32;73.40;96110.63;2018214;29;20056;-71
2023/06/16 03:54:52;;;;;;;11.48;8.32;;;;;;;11.41;72.69;96116.22;2010738;29;20050;-71
2023/06/16 03:55:53;;;;;;;12.55;8.13;;;;;;;11.32;72.59;96100.22;2017474;29;20417;-71
2023/06/16 03:56:55;;;;;;;10.77;8.77;;;;;;;11.43;72.60;96110.94;2018399;29;20057;-71
2023/06/16 03:57:58;;;;;;;10.07;8.32;;;;;;;11.46;72.03;96110.78;2011194;29;20055;-71
2023/06/16 03:58:59;;;;;;;12.32;8.70;;;;;;;11.45;71.92;96103.91;2018193;29;20057;-71
2023/06/16 04:00:00;;;;;;;11.10;8.77;;;;;;;11.41;72.52;96110.16;2017634;29;20433;-71
2023/06/16 04:01:02;;;;;;;11.82;8.75;;;;;;;11.45;71.80;96104.75;2010249;29;20513;-71
2023/06/16 04:02:09;;;;;;;11.85;8.70;;;;;;;11.50;71.81;96107.13;2018203;29;20410;-71
2023/06/16 04:03:17;;;;;;;13.18;8.57;;;;;;;11.58;71.68;96107.59;2009825;29;20076;-71
2023/06/16 04:04:19;;;;;;;14.00;8.95;;;;;;;11.64;71.13;96109.03;2005146;29;20050;-71
2023/06/16 04:05:23;;;;;;;11.00;8.23;;;;;;;11.71;71.47;96107.81;2009843;29;20494;-71
2023/06/16 04:06:25;;;;;;;11.65;8.75;;;;;;;11.75;70.48;96114.53;2010989;29;20064;-71
2023/06/16 04:07:26;;;;;;;10.20;8.57;;;;;;;11.80;70.44;96112.56;2010734;29;20116;-71
2023/06/16 04:08:27;;;;;;;11.15;8.60;;;;;;;11.83;70.99;96116.78;2018289;29;20057;-71
2023/06/16 04:09:30;;;;;;;11.68;8.27;;;;;;;11.86;71.05;96114.03;2017989;29;20067;-71
2023/06/16 04:10:31;;;;;;;14.05;9.27;;;;;;;11.91;70.75;96122.47;2017994;29;20064;-71
2023/06/16 04:11:32;;;;;;;11.13;8.63;;;;;;;11.86;70.28;96095.81;2018228;29;20056;-70
2023/06/16 04:12:33;;;;;;;13.15;8.05;;;;;;;12.02;70.97;96119.31;2010343;29;20064;-71
2023/06/16 04:13:37;;;;;;;11.75;8.32;;;;;;;12.05;70.74;96116.56;2002859;29;20042;-71
2023/06/16 04:14:43;;;;;;;12.43;8.25;;;;;;;12.09;70.59;96120.69;2004495;29;20077;-71
2023/06/16 04:15:46;;;;;;;13.07;8.65;;;;;;;12.13;70.37;96120.47;2017679;29;20064;-71
2023/06/16 04:16:50;;;;;;;13.93;9.23;;;;;;;12.16;70.60;96116.00;2003535;29;20517;-71
2023/06/16 04:17:51;;;;;;;9.65;7.57;;;;;;;12.23;69.45;96119.97;2002800;29;20064;-71
2023/06/16 04:18:53;;;;;;;14.60;8.30;;;;;;;12.27;70.00;96124.97;2003157;29;20446;-71
2023/06/16 04:19:57;;;;;;;12.90;8.27;;;;;;;12.31;69.69;96117.81;2003178;29;20054;-71
2023/06/16 04:20:58;;;;;;;12.05;8.30;;;;;;;12.34;69.89;96121.09;2017768;29;20056;-71
2023/06/16 04:21:59;;;;;;;13.52;8.48;;;;;;;12.39;69.50;96120.84;2026237;29;20111;-71
2023/06/16 04:23:09;;;;;;;11.75;8.32;;;;;;;12.43;69.53;96125.00;2018376;29;20045;-71
2023/06/16 04:24:10;;;;;;;11.45;7.55;;;;;;;12.46;68.96;96117.03;2010500;29;20502;-71
2023/06/16 04:25:11;;;;;;;10.57;8.38;;;;;;;12.50;68.60;96113.31;2002728;29;20066;-71
2023/06/16 04:26:21;;;;;;;10.52;7.80;;;;;;;12.45;67.81;96102.28;2003628;29;20050;-71
2023/06/16 04:27:23;;;;;;;11.57;8.30;;;;;;;12.56;68.20;96105.19;2011152;29;20431;-71
2023/06/16 04:28:25;;;;;;;10.63;7.78;;;;;;;12.62;67.96;96111.00;2010654;29;20064;-71
2023/06/16 04:29:27;;;;;;;9.95;7.43;;;;;;;12.61;68.13;96097.13;2011036;29;20065;-71
2023/06/16 04:30:30;;;;;;;12.25;8.93;;;;;;;12.74;67.17;96105.94;2010045;29;20069;-71
2023/06/16 04:31:32;;;;;;;11.77;8.23;;;;;;;12.80;67.45;96110.00;2018452;29;20060;-71
2023/06/16 04:32:35;;;;;;;11.05;7.93;;;;;;;12.78;67.67;96096.22;2018212;29;20057;-71
2023/06/16 04:33:41;;;;;;;11.82;8.65;;;;;;;12.96;67.57;96107.38;2018273;29;20064;-71
2023/06/16 04:34:42;;;;;;;11.93;8.00;;;;;;;13.06;66.51;96111.19;2018091;29;20056;-71
2023/06/16 04:35:45;;;;;;;11.75;8.20;;;;;;;13.16;66.43;96111.53;2010615;29;20433;-71
2023/06/16 04:36:46;;;;;;;9.95;8.00;;;;;;;13.24;65.67;96111.94;2010362;29;20053;-71
2023/06/16 04:37:59;;;;;;;13.48;8.30;;;;;;;13.24;65.10;96096.28;2011756;29;20049;-71
2023/06/16 04:39:01;;;;;;;11.15;8.13;;;;;;;13.36;65.04;96110.41;2009783;29;20060;-71
2023/06/16 04:40:05;;;;;;;12.63;8.48;;;;;;;13.40;64.77;96112.78;2010002;29;20060;-71
2023/06/16 04:41:06;;;;;;;13.18;8.40;;;;;;;13.35;64.11;96104.38;2010905;29;20049;-71
2023/06/16 04:42:10;;;;;;;11.60;8.38;;;;;;;13.45;63.90;96115.13;2018192;29;20127;-71
2023/06/16 04:43:12;;;;;;;12.02;8.38;;;;;;;13.50;63.61;96107.03;2010741;29;20052;-71
2023/06/16 04:44:14;;;;;;;12.15;8.50;;;;;;;13.52;64.38;96113.84;2010342;29;20058;-71
2023/06/16 04:45:17;;;;;;;14.35;8.30;;;;;;;13.46;64.22;96112.44;2010258;29;20064;-71
2023/06/16 04:46:20;;;;;;;14.05;8.77;;;;;;;13.45;64.27;96112.53;2018048;29;20064;-71
2023/06/16 04:47:22;;;;;;;11.80;8.15;;;;;;;13.54;64.45;96106.78;2010237;29;20053;-71
2023/06/16 04:48:25;;;;;;;11.82;8.30;;;;;;;13.53;64.31;96101.66;2010522;29;20068;-71
2023/06/16 04:49:26;;;;;;;11.98;8.82;;;;;;;13.69;64.41;96112.91;2010332;29;20053;-71
2023/06/16 04:50:27;;;;;;;12.40;8.90;;;;;;;13.73;64.16;96113.53;2010467;29;20123;-71
2023/06/16 04:51:28;;;;;;;11.30;8.32;;;;;;;13.68;64.66;96108.59;2018128;29;20453;-71
2023/06/16 04:52:30;;;;;;;11.45;8.45;;;;;;;13.75;64.46;96107.31;2017552;29;20095;-71
2023/06/16 04:53:32;;;;;;;11.90;8.45;;;;;;;13.68;64.65;96116.41;2017889;29;20053;-71
2023/06/16 04:54:34;;;;;;;11.98;8.68;;;;;;;13.76;64.92;96113.38;2010808;29;20529;-71
2023/06/16 04:55:37;;;;;;;12.05;8.95;;;;;;;13.74;64.97;96115.22;2017661;29;20065;-71